Westerham, United Kingdom
Current Conditions -  °F | °C
As of 7:50 PM on Friday 19 Dec 2014 (Local Time) from EGKB Reporting Station
Clear Clear  
Wind Chill: 38°   Ceiling: Unl
Heat Index: 43°   Visibility: 6mi
Dew Point: 34°   Wind: 8mph
Humidity: 70%   Direction: 250°WSW
Pressure: 30.18"   Gusts: NA
Location:  51.27°N, 0.07°E
Report Text: EGKB 191950Z 25007KT CAVOK 06/01 Q1022
Loading
Personal Weather Stations






























Interactive Weather Map New forecast layout! Learn more

10-Day Weather Forecast

Advertisements
Track Severe Weather on mobile